Time;durP1;ratioP1;P1;durP2;ratioP2;P2;SDS_P1;SDS_P2;PMS_P1;PMS_P2;Temp;Humidity;BMP_temperature;BMP_pressure;BME280_temperature;BME280_humidity;BME280_pressure;Samples;Min_cycle;Max_cycle;Signal;HPM_P1;HPM_P2
2024/03/07 00:02:10;;;;;;;91.90;13.48;;;9.70;96.40;;;;;;5035743;28;20482;-59
2024/03/07 00:04:36;;;;;;;93.60;13.48;;;9.60;96.40;;;;;;5069845;28;20039;-59
2024/03/07 00:07:03;;;;;;;74.40;13.38;;;9.60;96.50;;;;;;5069758;28;20025;-59
2024/03/07 00:09:33;;;;;;;89.22;13.25;;;9.70;96.50;;;;;;5069434;28;20037;-58
2024/03/07 00:11:59;;;;;;;84.10;13.57;;;9.60;96.50;;;;;;5069754;28;20025;-59
2024/03/07 00:14:26;;;;;;;68.57;12.88;;;9.60;96.50;;;;;;5069601;28;20017;-58
2024/03/07 00:16:55;;;;;;;68.38;13.18;;;9.60;96.50;;;;;;5052089;28;20468;-59
2024/03/07 00:19:21;;;;;;;77.22;12.57;;;9.60;96.50;;;;;;5069707;28;20109;-59
2024/03/07 00:21:47;;;;;;;65.40;11.15;;;9.60;96.50;;;;;;5052224;28;20033;-59
2024/03/07 00:24:16;;;;;;;64.78;12.25;;;9.60;96.50;;;;;;5051537;28;20021;-58
2024/03/07 00:26:41;;;;;;;68.10;12.55;;;9.60;96.50;;;;;;5069535;28;20037;-58
2024/03/07 00:29:07;;;;;;;60.88;11.45;;;9.50;96.50;;;;;;5069241;28;20025;-58
2024/03/07 00:31:33;;;;;;;68.43;11.93;;;9.50;96.40;;;;;;5069547;28;20039;-58
2024/03/07 00:33:59;;;;;;;66.00;11.10;;;9.50;96.40;;;;;;5051512;28;20072;-58
2024/03/07 00:36:25;;;;;;;51.45;11.50;;;9.50;96.40;;;;;;5068941;28;20479;-58
2024/03/07 00:38:54;;;;;;;70.15;11.77;;;9.50;96.50;;;;;;5069334;28;20037;-58
2024/03/07 00:41:20;;;;;;;56.80;12.07;;;9.50;96.40;;;;;;5051098;28;20037;-58
2024/03/07 00:43:46;;;;;;;53.28;11.07;;;9.40;96.40;;;;;;5051325;28;20025;-58
2024/03/07 00:46:11;;;;;;;61.28;11.20;;;9.40;96.40;;;;;;5034380;28;20036;-58
2024/03/07 00:48:37;;;;;;;56.75;11.93;;;9.50;96.50;;;;;;5051322;28;20029;-58
2024/03/07 00:51:04;;;;;;;68.13;10.95;;;9.40;96.40;;;;;;5051622;28;20495;-58
2024/03/07 00:53:30;;;;;;;56.92;10.45;;;9.40;96.40;;;;;;5051436;28;20021;-58
2024/03/07 00:55:56;;;;;;;60.60;10.57;;;9.40;96.40;;;;;;5051434;28;20021;-58
2024/03/07 00:58:22;;;;;;;60.88;11.35;;;9.40;96.50;;;;;;5068776;28;20052;-58
2024/03/07 01:00:47;;;;;;;44.10;9.50;;;9.40;96.50;;;;;;5050817;28;20036;-58
2024/03/07 01:03:13;;;;;;;49.15;9.98;;;9.30;96.50;;;;;;5068614;28;20102;-58
2024/03/07 01:05:40;;;;;;;57.17;10.10;;;9.40;96.50;;;;;;5050867;28;20024;-58
2024/03/07 01:08:06;;;;;;;54.63;10.93;;;9.30;96.80;;;;;;5068454;28;20029;-58
2024/03/07 01:10:31;;;;;;;48.10;9.48;;;9.30;96.50;;;;;;5050688;28;20036;-58
2024/03/07 01:12:57;;;;;;;54.88;10.65;;;9.30;96.50;;;;;;5068607;28;20022;-58
2024/03/07 01:15:23;;;;;;;47.22;9.27;;;9.30;96.50;;;;;;5050575;28;20075;-58
2024/03/07 01:17:49;;;;;;;51.90;9.50;;;9.30;96.50;;;;;;5050240;28;20021;-58
2024/03/07 01:20:14;;;;;;;42.25;9.20;;;9.30;96.50;;;;;;5050113;28;20207;-58
2024/03/07 01:22:40;;;;;;;48.78;9.20;;;9.30;96.50;;;;;;5050322;28;20029;-58
2024/03/07 01:25:06;;;;;;;35.35;8.70;;;9.30;96.50;;;;;;5068292;28;20029;-58
2024/03/07 01:27:32;;;;;;;48.03;9.82;;;9.30;96.50;;;;;;5068083;28;20025;-58
2024/03/07 01:29:58;;;;;;;46.22;8.52;;;9.20;96.50;;;;;;5050437;28;20067;-58
2024/03/07 01:32:23;;;;;;;49.22;10.38;;;9.30;96.50;;;;;;5068124;28;20483;-60
2024/03/07 01:34:49;;;;;;;36.30;9.25;;;9.20;96.50;;;;;;5050376;28;20036;-58
2024/03/07 01:37:15;;;;;;;38.22;8.40;;;9.20;96.50;;;;;;5050172;28;20040;-58
2024/03/07 01:39:40;;;;;;;38.17;8.88;;;9.20;96.50;;;;;;5050248;28;20021;-59
2024/03/07 01:42:08;;;;;;;39.40;8.82;;;9.20;96.50;;;;;;5050237;28;20033;-58
2024/03/07 01:44:33;;;;;;;33.50;8.00;;;9.20;96.50;;;;;;5049916;28;20035;-58
2024/03/07 01:47:02;;;;;;;38.13;8.68;;;9.20;96.50;;;;;;5067918;28;20033;-58
2024/03/07 01:49:29;;;;;;;33.95;9.40;;;9.20;96.50;;;;;;5050640;28;20025;-58
2024/03/07 01:51:55;;;;;;;33.03;8.50;;;9.20;96.50;;;;;;5049294;28;20083;-58
2024/03/07 01:54:20;;;;;;;37.55;7.90;;;9.10;96.50;;;;;;5033213;28;20115;-58
2024/03/07 01:56:46;;;;;;;37.75;9.25;;;9.10;96.50;;;;;;5049916;28;20037;-58
2024/03/07 01:59:12;;;;;;;31.85;8.10;;;9.10;96.50;;;;;;5050127;28;20080;-58
2024/03/07 02:01:37;;;;;;;32.03;8.95;;;9.10;96.50;;;;;;5049815;28;20088;-58
2024/03/07 02:04:03;;;;;;;29.23;8.55;;;9.10;96.40;;;;;;5033035;28;20044;-58
2024/03/07 02:06:29;;;;;;;28.10;7.75;;;9.10;96.50;;;;;;5050152;28;20035;-58
2024/03/07 02:08:55;;;;;;;34.47;7.57;;;9.10;96.50;;;;;;5049837;28;20438;-58
2024/03/07 02:11:21;;;;;;;31.60;7.03;;;9.10;96.50;;;;;;5049735;28;20051;-58
2024/03/07 02:13:46;;;;;;;34.20;7.82;;;9.10;96.50;;;;;;5067463;28;20021;-58
2024/03/07 02:16:12;;;;;;;32.70;7.38;;;9.00;96.50;;;;;;5049480;28;20033;-58
2024/03/07 02:18:38;;;;;;;36.83;8.38;;;9.00;96.80;;;;;;5032877;28;20029;-58
2024/03/07 02:21:08;;;;;;;35.03;8.48;;;9.10;96.60;;;;;;5049615;28;20047;-58
2024/03/07 02:23:34;;;;;;;28.20;8.95;;;9.00;96.50;;;;;;5049667;28;20033;-58
2024/03/07 02:26:00;;;;;;;29.75;7.82;;;9.00;96.50;;;;;;5049382;28;20494;-58
2024/03/07 02:28:25;;;;;;;26.13;7.60;;;9.00;96.50;;;;;;5049446;28;20021;-59
2024/03/07 02:30:51;;;;;;;27.13;7.78;;;9.00;96.60;;;;;;5067180;28;20032;-58
2024/03/07 02:33:17;;;;;;;38.05;8.48;;;9.00;96.50;;;;;;5049123;28;20025;-58
2024/03/07 02:35:42;;;;;;;27.70;8.20;;;9.00;96.60;;;;;;5048915;28;20060;-58
2024/03/07 02:38:08;;;;;;;37.25;8.02;;;9.00;96.60;;;;;;5067041;28;20384;-58
2024/03/07 02:40:34;;;;;;;25.30;7.47;;;8.90;96.50;;;;;;5066929;28;20033;-58
2024/03/07 02:42:59;;;;;;;30.75;7.15;;;8.90;96.60;;;;;;5066839;28;20025;-59
2024/03/07 02:45:25;;;;;;;30.02;7.78;;;8.90;96.60;;;;;;5049005;28;20040;-59
2024/03/07 02:47:51;;;;;;;23.95;7.22;;;8.90;96.60;;;;;;5032169;28;20040;-58
2024/03/07 02:50:17;;;;;;;21.73;8.48;;;8.90;96.60;;;;;;5032333;28;20028;-58
2024/03/07 02:52:42;;;;;;;31.77;8.02;;;8.90;96.60;;;;;;5066846;28;20046;-58
2024/03/07 02:55:10;;;;;;;24.80;7.22;;;8.90;96.50;;;;;;5066694;28;20025;-58
2024/03/07 02:57:36;;;;;;;25.90;7.75;;;8.90;96.50;;;;;;5049366;28;20471;-58
2024/03/07 03:00:02;;;;;;;24.30;7.70;;;8.90;96.50;;;;;;5049076;28;20029;-58
2024/03/07 03:02:28;;;;;;;17.40;7.30;;;8.90;96.60;;;;;;5049037;28;20108;-58
2024/03/07 03:04:54;;;;;;;21.67;6.70;;;8.90;96.60;;;;;;5048651;28;20036;-58
2024/03/07 03:07:20;;;;;;;26.23;8.02;;;8.90;96.60;;;;;;5048468;28;20082;-58
2024/03/07 03:09:46;;;;;;;31.17;8.13;;;8.90;96.50;;;;;;5066436;28;20025;-58
2024/03/07 03:12:12;;;;;;;18.40;7.32;;;8.90;96.50;;;;;;5066465;28;20025;-58
2024/03/07 03:14:37;;;;;;;16.90;7.00;;;8.90;96.50;;;;;;5048657;28;20040;-58
2024/03/07 03:17:03;;;;;;;23.08;6.70;;;8.90;96.60;;;;;;5048476;28;20032;-58
2024/03/07 03:19:29;;;;;;;23.83;7.35;;;8.80;96.50;;;;;;5048672;28;20076;-58
2024/03/07 03:21:55;;;;;;;19.40;6.82;;;8.80;96.50;;;;;;5048585;28;20037;-58
2024/03/07 03:24:21;;;;;;;22.70;6.70;;;8.80;96.60;;;;;;5031815;28;20047;-58
2024/03/07 03:26:47;;;;;;;20.80;6.72;;;8.80;96.60;;;;;;5048441;28;20033;-59
2024/03/07 03:29:13;;;;;;;22.70;7.78;;;8.80;96.60;;;;;;5048339;28;20051;-58
2024/03/07 03:31:39;;;;;;;15.80;6.68;;;8.80;96.50;;;;;;5066367;28;20578;-58
2024/03/07 03:34:05;;;;;;;24.15;6.95;;;8.80;96.90;;;;;;5066316;28;20048;-59
2024/03/07 03:36:31;;;;;;;22.45;6.65;;;8.80;96.60;;;;;;5048127;28;20079;-58
2024/03/07 03:38:56;;;;;;;25.73;6.28;;;8.80;96.60;;;;;;5048487;28;20033;-58
2024/03/07 03:41:22;;;;;;;18.70;6.50;;;8.80;96.50;;;;;;5031772;28;20029;-58
2024/03/07 03:43:48;;;;;;;15.50;6.47;;;8.80;96.60;;;;;;5048697;28;20029;-58
2024/03/07 03:46:14;;;;;;;19.27;7.47;;;8.80;96.60;;;;;;5048166;28;20025;-58
2024/03/07 03:48:40;;;;;;;21.65;6.68;;;8.80;96.60;;;;;;5048500;28;20403;-59
2024/03/07 03:51:08;;;;;;;15.82;6.80;;;8.70;96.60;;;;;;5031744;28;20032;-58
2024/03/07 03:53:33;;;;;;;19.42;6.72;;;8.70;96.60;;;;;;5048474;28;20040;-58
2024/03/07 03:55:59;;;;;;;19.70;6.55;;;8.70;96.70;;;;;;5048355;28;20025;-58
2024/03/07 03:58:25;;;;;;;19.63;6.47;;;8.80;96.70;;;;;;5065963;28;20085;-58
2024/03/07 04:00:51;;;;;;;17.88;6.60;;;8.70;96.60;;;;;;5031711;28;20122;-58
2024/03/07 04:03:17;;;;;;;17.70;6.90;;;8.70;96.60;;;;;;5031730;28;20025;-58
2024/03/07 04:05:43;;;;;;;17.63;7.03;;;8.70;96.60;;;;;;5048143;28;20040;-59
2024/03/07 04:08:09;;;;;;;15.90;5.95;;;8.70;96.60;;;;;;5048005;28;20025;-58
2024/03/07 04:10:35;;;;;;;24.25;6.07;;;8.70;96.60;;;;;;5066008;28;20033;-58
2024/03/07 04:13:00;;;;;;;12.13;5.90;;;8.70;96.60;;;;;;5065879;28;20505;-58
2024/03/07 04:15:26;;;;;;;11.88;5.38;;;8.70;96.60;;;;;;5033227;28;20043;-58
2024/03/07 04:17:53;;;;;;;14.80;5.78;;;8.70;96.70;;;;;;5069565;28;20056;-58
2024/03/07 04:20:18;;;;;;;21.45;5.80;;;8.70;96.70;;;;;;5051640;28;20033;-58
2024/03/07 04:22:44;;;;;;;11.57;6.00;;;8.70;96.70;;;;;;5069506;28;20040;-58
2024/03/07 04:25:09;;;;;;;11.82;6.20;;;8.70;96.70;;;;;;5069285;28;20032;-58
2024/03/07 04:27:36;;;;;;;11.27;5.68;;;8.60;96.70;;;;;;5069331;28;20025;-58
2024/03/07 04:30:03;;;;;;;18.58;6.03;;;8.60;96.70;;;;;;5051625;28;20051;-58
2024/03/07 04:32:30;;;;;;;15.48;6.43;;;8.60;96.70;;;;;;5049970;28;20514;-58
2024/03/07 04:34:57;;;;;;;18.85;6.55;;;8.60;96.70;;;;;;5031398;28;20104;-58
2024/03/07 04:37:23;;;;;;;19.85;5.85;;;8.60;96.70;;;;;;5015474;28;20038;-58
2024/03/07 04:39:49;;;;;;;10.38;5.32;;;8.60;96.70;;;;;;5015292;28;20057;-58
2024/03/07 04:42:15;;;;;;;13.35;5.80;;;8.60;96.70;;;;;;5031532;28;20042;-59
2024/03/07 04:44:40;;;;;;;14.05;5.97;;;8.60;96.70;;;;;;5031621;28;20026;-59
2024/03/07 04:47:07;;;;;;;14.07;5.80;;;8.60;96.60;;;;;;5031355;28;20486;-58
2024/03/07 04:49:33;;;;;;;17.30;5.45;;;8.60;96.60;;;;;;5031470;28;20025;-58
2024/03/07 04:51:59;;;;;;;12.85;5.28;;;8.60;96.60;;;;;;5031338;28;20085;-59
2024/03/07 04:54:26;;;;;;;12.52;5.22;;;8.60;96.60;;;;;;5014922;28;20081;-58
2024/03/07 04:56:52;;;;;;;15.30;5.75;;;8.60;96.60;;;;;;5015095;28;20068;-58
2024/03/07 04:59:18;;;;;;;12.18;6.10;;;8.60;96.60;;;;;;5029183;28;20026;-58
2024/03/07 05:01:44;;;;;;;13.07;4.95;;;8.60;96.60;;;;;;5030431;28;20156;-58
2024/03/07 05:04:10;;;;;;;12.27;5.32;;;8.50;96.60;;;;;;5031908;28;20037;-58
2024/03/07 05:06:36;;;;;;;11.27;4.82;;;8.60;96.60;;;;;;5033219;28;20057;-58
2024/03/07 05:09:03;;;;;;;12.38;4.68;;;8.60;96.60;;;;;;5031428;28;20067;-58
2024/03/07 05:11:31;;;;;;;11.38;4.78;;;8.60;96.60;;;;;;5031461;28;20093;-58
2024/03/07 05:13:57;;;;;;;14.73;4.78;;;8.60;96.60;;;;;;5014570;28;20472;-59
2024/03/07 05:16:24;;;;;;;9.05;5.18;;;8.60;96.60;;;;;;5048682;28;20052;-59
2024/03/07 05:18:50;;;;;;;9.93;4.95;;;8.60;96.60;;;;;;5048580;28;20029;-59
2024/03/07 05:24:04;;;;;;;14.15;5.28;;;8.60;96.60;;;;;;5033271;28;20048;-58
2024/03/07 05:26:33;;;;;;;11.48;4.90;;;8.50;96.50;;;;;;5013396;28;20059;-58
2024/03/07 05:29:04;;;;;;;13.30;4.88;;;8.60;96.50;;;;;;5048049;28;20030;-58
2024/03/07 05:31:33;;;;;;;11.65;4.93;;;8.60;96.50;;;;;;5031053;28;20025;-58
2024/03/07 05:34:03;;;;;;;11.25;5.20;;;8.60;96.60;;;;;;5030289;28;20096;-58
2024/03/07 05:36:30;;;;;;;10.90;5.63;;;8.60;96.50;;;;;;4998273;28;20044;-58
2024/03/07 05:38:56;;;;;;;12.02;4.68;;;8.60;96.50;;;;;;5030467;28;20025;-58
2024/03/07 05:41:22;;;;;;;13.85;4.80;;;8.60;96.50;;;;;;5048104;28;20040;-58
2024/03/07 05:43:48;;;;;;;10.80;4.90;;;8.60;96.50;;;;;;5013888;28;20058;-58
2024/03/07 05:46:13;;;;;;;13.57;5.00;;;8.60;96.50;;;;;;5030241;28;20098;-58
2024/03/07 05:48:39;;;;;;;13.15;4.88;;;8.60;96.50;;;;;;5047826;28;20038;-58
2024/03/07 05:51:04;;;;;;;29.38;6.32;;;8.60;96.50;;;;;;5049735;28;20095;-58
2024/03/07 05:53:30;;;;;;;27.38;5.85;;;8.60;96.50;;;;;;5047704;28;20033;-58
2024/03/07 05:55:56;;;;;;;16.35;5.05;;;8.60;96.50;;;;;;4997555;28;20021;-58
2024/03/07 05:58:21;;;;;;;22.23;6.15;;;8.60;96.50;;;;;;5029785;28;20034;-58
2024/03/07 06:00:49;;;;;;;18.80;6.13;;;8.60;96.60;;;;;;5029794;28;20032;-58
2024/03/07 06:03:21;;;;;;;16.58;4.97;;;8.60;96.60;;;;;;5047391;28;20036;-58
2024/03/07 06:05:50;;;;;;;17.20;5.45;;;8.60;96.90;;;;;;5047446;28;20021;-58
2024/03/07 06:08:17;;;;;;;17.90;5.55;;;8.60;96.60;;;;;;5030157;28;20543;-58
2024/03/07 06:10:43;;;;;;;13.48;5.20;;;8.60;96.60;;;;;;4997014;28;20028;-58
2024/03/07 06:13:10;;;;;;;13.68;5.93;;;8.60;96.70;;;;;;5029787;28;20118;-58
2024/03/07 06:15:38;;;;;;;22.55;5.97;;;8.60;96.70;;;;;;5029706;28;20022;-58
2024/03/07 06:18:04;;;;;;;34.65;7.00;;;8.60;96.70;;;;;;5047155;28;20041;-58
2024/03/07 06:20:29;;;;;;;48.28;7.00;;;8.60;97.00;;;;;;5013285;28;20101;-58
2024/03/07 06:22:57;;;;;;;27.75;6.35;;;8.60;96.70;;;;;;5047333;28;20044;-58
2024/03/07 06:25:46;;;;;;;33.50;6.88;;;8.60;96.80;;;;;;5029619;28;20037;-58
2024/03/07 06:28:11;;;;;;;26.20;6.22;;;8.60;96.80;;;;;;5047181;28;20112;-58
2024/03/07 06:30:42;;;;;;;26.70;6.43;;;8.60;96.80;;;;;;5029735;28;20025;-58
2024/03/07 06:33:09;;;;;;;45.35;7.75;;;8.60;96.70;;;;;;5029801;28;20075;-58
2024/03/07 06:35:38;;;;;;;35.53;6.95;;;8.60;96.80;;;;;;4996476;28;20017;-58
2024/03/07 06:38:08;;;;;;;39.38;8.00;;;8.60;97.10;;;;;;5029671;28;20041;-58
2024/03/07 06:40:34;;;;;;;34.72;6.78;;;8.60;96.80;;;;;;5013167;28;20037;-58
2024/03/07 06:42:59;;;;;;;33.60;8.05;;;8.60;96.80;;;;;;5012589;28;20025;-58
2024/03/07 06:45:26;;;;;;;29.55;8.27;;;8.60;96.90;;;;;;5012680;28;20041;-58
2024/03/07 06:47:54;;;;;;;37.70;7.40;;;8.60;96.90;;;;;;4996261;28;20030;-58
2024/03/07 06:50:21;;;;;;;37.08;9.02;;;8.60;97.00;;;;;;4997193;28;20048;-58
2024/03/07 06:52:47;;;;;;;41.75;8.35;;;8.60;97.00;;;;;;5029017;28;20048;-58
2024/03/07 06:55:16;;;;;;;33.05;8.13;;;8.60;97.00;;;;;;5046556;28;20030;-58
2024/03/07 06:57:43;;;;;;;41.55;8.15;;;8.60;97.10;;;;;;5029324;28;20029;-58
2024/03/07 07:00:10;;;;;;;55.83;8.52;;;8.60;97.10;;;;;;5030455;28;20025;-58
2024/03/07 07:02:38;;;;;;;30.08;8.35;;;8.60;97.20;;;;;;5030925;28;20055;-58
2024/03/07 07:05:10;;;;;;;43.88;8.13;;;8.60;97.10;;;;;;5011887;28;20029;-58
2024/03/07 07:07:39;;;;;;;40.65;8.57;;;8.60;97.10;;;;;;5061425;28;20028;-58
2024/03/07 07:10:08;;;;;;;26.63;7.82;;;8.60;97.10;;;;;;5062842;28;20025;-58
2024/03/07 07:12:34;;;;;;;41.65;9.05;;;8.60;97.00;;;;;;5049216;28;20112;-58
2024/03/07 07:15:00;;;;;;;33.25;9.18;;;8.60;97.00;;;;;;5047847;28;20464;-58
2024/03/07 07:17:28;;;;;;;33.92;8.25;;;8.60;97.00;;;;;;5065833;28;20055;-58
2024/03/07 07:19:55;;;;;;;42.63;10.02;;;8.60;97.00;;;;;;5065883;28;20021;-58
2024/03/07 07:22:21;;;;;;;44.28;9.20;;;8.60;97.30;;;;;;5048770;28;20036;-58
2024/03/07 07:24:47;;;;;;;52.67;10.23;;;8.70;97.00;;;;;;5038906;28;20033;-58
2024/03/07 07:27:12;;;;;;;46.05;9.05;;;8.70;97.00;;;;;;5062224;28;20269;-58
2024/03/07 07:29:39;;;;;;;50.42;9.88;;;8.70;97.00;;;;;;5046198;28;20067;-58
2024/03/07 07:32:05;;;;;;;59.42;11.68;;;8.70;97.10;;;;;;5029997;28;20085;-58
2024/03/07 07:34:30;;;;;;;62.95;10.05;;;8.70;97.10;;;;;;5045673;28;20017;-58
2024/03/07 07:36:56;;;;;;;77.10;14.38;;;8.70;97.10;;;;;;5060384;28;20159;-58
2024/03/07 07:39:22;;;;;;;133.85;19.67;;;8.70;97.00;;;;;;5065619;28;20052;-58
2024/03/07 07:41:48;;;;;;;113.00;15.70;;;8.70;97.00;;;;;;5066075;28;20392;-58
2024/03/07 07:44:15;;;;;;;61.30;12.40;;;8.70;97.10;;;;;;5048348;28;20060;-58
2024/03/07 07:46:41;;;;;;;59.17;11.55;;;8.70;97.10;;;;;;5061419;28;20048;-58
2024/03/07 07:49:06;;;;;;;63.28;12.00;;;8.70;97.00;;;;;;5065376;28;20025;-59
2024/03/07 07:51:32;;;;;;;122.60;16.52;;;8.70;97.00;;;;;;5035286;28;20036;-58
2024/03/07 07:53:59;;;;;;;86.25;15.30;;;8.70;96.90;;;;;;5051877;28;20025;-58
2024/03/07 07:56:24;;;;;;;74.50;11.93;;;8.70;96.90;;;;;;5061134;28;20060;-58
2024/03/07 07:58:51;;;;;;;72.38;12.88;;;8.80;96.90;;;;;;5040524;28;20516;-58
2024/03/07 08:01:17;;;;;;;77.70;13.57;;;8.80;96.90;;;;;;5034605;28;20458;-58
2024/03/07 08:03:46;;;;;;;88.00;14.70;;;8.80;96.80;;;;;;5024245;28;20064;-58
2024/03/07 08:06:11;;;;;;;77.20;13.68;;;8.80;96.80;;;;;;5067759;28;20587;-58
2024/03/07 08:08:37;;;;;;;86.75;13.90;;;8.80;96.80;;;;;;5058988;28;20057;-58
2024/03/07 08:11:03;;;;;;;95.38;14.45;;;8.80;96.80;;;;;;5017292;28;20082;-58
2024/03/07 08:13:28;;;;;;;90.53;15.68;;;8.80;96.70;;;;;;5048915;28;20040;-58
2024/03/07 08:15:54;;;;;;;108.47;14.63;;;8.80;96.70;;;;;;5068658;28;20100;-58
2024/03/07 08:18:20;;;;;;;93.20;14.25;;;8.80;96.80;;;;;;5033482;28;20029;-58
2024/03/07 08:20:46;;;;;;;96.40;16.50;;;8.80;96.90;;;;;;5034404;28;20079;-58
2024/03/07 08:23:12;;;;;;;106.95;17.65;;;8.80;96.80;;;;;;5010171;28;20094;-57
2024/03/07 08:25:40;;;;;;;83.32;15.35;;;8.80;96.80;;;;;;5049280;28;20025;-58
2024/03/07 08:28:06;;;;;;;74.57;13.10;;;8.70;96.80;;;;;;5048930;28;20083;-58
2024/03/07 08:30:31;;;;;;;90.78;13.95;;;8.80;96.80;;;;;;5048794;28;20032;-57
2024/03/07 08:32:58;;;;;;;82.72;13.80;;;8.80;96.80;;;;;;5055238;28;20047;-58
2024/03/07 08:35:24;;;;;;;95.82;14.95;;;8.80;96.80;;;;;;5027389;28;20025;-57
2024/03/07 08:37:54;;;;;;;95.18;15.00;;;8.90;96.80;;;;;;5033216;28;20128;-58
2024/03/07 08:40:20;;;;;;;90.18;14.07;;;8.90;96.70;;;;;;5049341;28;20031;-58
2024/03/07 08:42:55;;;;;;;103.70;15.55;;;8.90;96.70;;;;;;5053531;28;20037;-57
2024/03/07 08:45:21;;;;;;;88.18;14.65;;;8.90;96.60;;;;;;5033662;28;20033;-57
2024/03/07 08:47:48;;;;;;;92.70;15.27;;;8.90;96.60;;;;;;5049413;28;20028;-58
2024/03/07 08:50:13;;;;;;;121.60;17.08;;;8.90;96.60;;;;;;5049046;28;20486;-58
2024/03/07 08:52:39;;;;;;;100.60;15.23;;;8.90;96.60;;;;;;5054141;28;20021;-58
2024/03/07 08:55:06;;;;;;;138.50;18.13;;;8.90;96.50;;;;;;5047764;28;20381;-58
2024/03/07 08:57:31;;;;;;;83.70;16.23;;;8.90;96.50;;;;;;5064548;28;20087;-58
2024/03/07 08:59:57;;;;;;;101.13;16.13;;;8.90;96.50;;;;;;5015578;28;20033;-58
2024/03/07 09:02:23;;;;;;;92.07;16.45;;;8.90;96.50;;;;;;5057624;28;20033;-58
2024/03/07 09:04:49;;;;;;;100.50;15.05;;;8.90;96.50;;;;;;5065546;28;20484;-58
2024/03/07 09:07:14;;;;;;;84.40;14.88;;;8.90;96.50;;;;;;5047973;28;20040;-58
2024/03/07 09:09:43;;;;;;;88.28;15.05;;;8.90;96.40;;;;;;5042226;28;20025;-58
2024/03/07 09:12:09;;;;;;;115.40;15.65;;;9.00;96.40;;;;;;5023797;28;20104;-58
2024/03/07 09:14:35;;;;;;;86.72;15.18;;;9.00;96.40;;;;;;5036289;28;20332;-58
2024/03/07 09:17:01;;;;;;;138.30;20.55;;;9.00;96.40;;;;;;5046625;28;20058;-58
2024/03/07 09:19:28;;;;;;;113.30;17.65;;;9.00;96.40;;;;;;5080519;28;20527;-58
2024/03/07 09:21:54;;;;;;;123.88;21.13;;;9.00;96.40;;;;;;5050644;28;20119;-58
2024/03/07 09:24:21;;;;;;;113.60;17.52;;;9.00;96.30;;;;;;5067845;28;20036;-57
2024/03/07 09:26:51;;;;;;;103.50;16.13;;;9.00;96.30;;;;;;5065963;28;20082;-57
2024/03/07 09:29:18;;;;;;;89.43;15.52;;;9.00;96.30;;;;;;5037472;28;20073;-57
2024/03/07 09:31:47;;;;;;;76.97;14.25;;;9.00;96.20;;;;;;5015195;28;20033;-58
2024/03/07 09:34:13;;;;;;;91.10;15.38;;;9.00;96.20;;;;;;5037764;28;20028;-58
2024/03/07 09:36:41;;;;;;;80.03;14.07;;;9.00;96.20;;;;;;5031578;28;20033;-58
2024/03/07 09:39:12;;;;;;;76.82;13.70;;;9.00;96.20;;;;;;5063726;28;20107;-58
2024/03/07 09:41:39;;;;;;;74.55;13.02;;;9.00;96.20;;;;;;5065162;28;20028;-58
2024/03/07 09:44:04;;;;;;;59.15;12.32;;;9.00;96.20;;;;;;5045912;28;20029;-58
2024/03/07 09:46:31;;;;;;;74.40;12.90;;;9.10;96.10;;;;;;5032072;28;20040;-58
2024/03/07 09:48:56;;;;;;;62.15;13.43;;;9.10;96.10;;;;;;5045277;28;20032;-58
2024/03/07 09:51:22;;;;;;;55.67;11.15;;;9.10;96.10;;;;;;5036897;28;20438;-58
2024/03/07 09:53:49;;;;;;;50.10;11.82;;;9.10;96.00;;;;;;5031008;28;20025;-58
2024/03/07 09:56:16;;;;;;;48.15;11.90;;;9.10;96.00;;;;;;5005044;28;20025;-58
2024/03/07 09:58:42;;;;;;;55.95;12.40;;;9.10;95.90;;;;;;5024645;28;20039;-58
2024/03/07 10:01:09;;;;;;;44.92;10.77;;;9.10;95.90;;;;;;5017927;28;20048;-58
2024/03/07 10:03:35;;;;;;;39.10;9.23;;;9.10;95.80;;;;;;5014739;28;20032;-57
2024/03/07 10:06:01;;;;;;;54.78;10.65;;;9.10;95.80;;;;;;5029379;28;20527;-58
2024/03/07 10:08:26;;;;;;;47.35;10.25;;;9.20;95.80;;;;;;5016380;28;20036;-57
2024/03/07 10:10:53;;;;;;;41.28;9.27;;;9.20;96.00;;;;;;5043365;28;20048;-58
2024/03/07 10:13:18;;;;;;;56.85;10.98;;;9.20;95.60;;;;;;5035710;28;20025;-58
2024/03/07 10:15:44;;;;;;;49.00;10.43;;;9.10;95.60;;;;;;5062198;28;20040;-58
2024/03/07 10:18:10;;;;;;;37.75;8.85;;;9.20;95.60;;;;;;5068009;28;20479;-57
2024/03/07 10:20:36;;;;;;;43.85;11.50;;;9.20;95.50;;;;;;5031043;28;20493;-58
2024/03/07 10:23:03;;;;;;;44.53;10.32;;;9.20;95.50;;;;;;5031764;28;20092;-58
2024/03/07 10:25:28;;;;;;;53.08;11.07;;;9.20;95.50;;;;;;5031897;28;20025;-58
2024/03/07 10:27:54;;;;;;;41.08;10.98;;;9.20;95.50;;;;;;5066909;28;20501;-58
2024/03/07 10:30:20;;;;;;;49.13;11.65;;;9.20;95.50;;;;;;5032153;28;20036;-57
2024/03/07 10:32:47;;;;;;;49.55;11.00;;;9.20;95.50;;;;;;5028657;28;20059;-58
2024/03/07 10:35:14;;;;;;;58.03;10.77;;;9.30;95.50;;;;;;5046728;28;20013;-57
2024/03/07 10:37:40;;;;;;;47.85;10.50;;;9.20;95.60;;;;;;5053833;28;20033;-58
2024/03/07 10:40:15;;;;;;;58.00;11.13;;;9.30;95.50;;;;;;5030657;28;20048;-57
2024/03/07 10:42:51;;;;;;;45.95;10.85;;;9.30;95.50;;;;;;5066467;28;20033;-57
2024/03/07 10:45:18;;;;;;;33.13;10.30;;;9.30;95.50;;;;;;5035032;28;20059;-57
2024/03/07 10:47:45;;;;;;;48.97;11.50;;;9.30;95.50;;;;;;5019971;28;20033;-57
2024/03/07 10:50:17;;;;;;;56.15;11.80;;;9.30;95.50;;;;;;5036168;28;20523;-57
2024/03/07 10:53:13;;;;;;;54.45;11.32;;;9.30;95.50;;;;;;5030602;28;20022;-57
2024/03/07 10:55:49;;;;;;;59.63;12.52;;;9.40;95.50;;;;;;5036713;28;20547;-58
2024/03/07 10:58:36;;;;;;;57.03;11.35;;;9.40;95.50;;;;;;5043448;28;20024;-58
2024/03/07 11:01:03;;;;;;;55.03;11.38;;;9.40;95.40;;;;;;5030131;28;20025;-58
2024/03/07 11:03:32;;;;;;;70.28;13.00;;;9.50;95.40;;;;;;5025970;28;20025;-57
2024/03/07 11:05:58;;;;;;;50.78;11.88;;;9.40;95.30;;;;;;5027812;28;20029;-58
2024/03/07 11:08:24;;;;;;;52.60;12.40;;;9.50;95.20;;;;;;5017019;28;20072;-58
2024/03/07 11:10:50;;;;;;;43.05;11.68;;;9.50;95.20;;;;;;5033114;28;20048;-58
2024/03/07 11:13:16;;;;;;;41.60;11.02;;;9.50;95.20;;;;;;5047365;28;20092;-57
2024/03/07 11:15:43;;;;;;;60.67;12.52;;;9.50;95.20;;;;;;5034246;28;20033;-57
2024/03/07 11:18:09;;;;;;;58.92;12.57;;;9.50;95.20;;;;;;5023019;28;20455;-58
2024/03/07 11:20:37;;;;;;;53.00;11.02;;;9.50;95.20;;;;;;5044903;28;20025;-57
2024/03/07 11:23:50;;;;;;;65.90;13.73;;;9.50;95.20;;;;;;5045772;28;20037;-58
2024/03/07 11:26:15;;;;;;;52.95;12.77;;;9.50;95.20;;;;;;5041662;28;20040;-58
2024/03/07 11:28:42;;;;;;;55.90;12.57;;;9.50;95.20;;;;;;5030908;28;20029;-58
2024/03/07 11:31:15;;;;;;;58.08;13.80;;;9.60;95.10;;;;;;5029165;28;20025;-58
2024/03/07 11:33:41;;;;;;;64.28;14.75;;;9.60;95.10;;;;;;5030621;28;20029;-58
2024/03/07 11:36:13;;;;;;;70.60;14.45;;;9.70;95.10;;;;;;5030506;28;20388;-57
2024/03/07 11:38:48;;;;;;;82.82;14.80;;;9.70;95.30;;;;;;5049151;28;20025;-58
2024/03/07 11:41:14;;;;;;;77.90;14.82;;;9.70;95.40;;;;;;5043886;28;20021;-58
2024/03/07 11:43:42;;;;;;;76.90;15.13;;;9.70;95.40;;;;;;5064619;28;20029;-58
2024/03/07 11:46:11;;;;;;;74.57;15.55;;;9.70;95.30;;;;;;5049726;28;20021;-58
2024/03/07 11:48:41;;;;;;;200.48;25.60;;;9.80;95.30;;;;;;5053376;28;20445;-58
2024/03/07 11:51:10;;;;;;;95.25;17.77;;;9.80;95.10;;;;;;5029663;28;20025;-58
2024/03/07 11:53:38;;;;;;;88.43;15.95;;;9.80;95.10;;;;;;5031359;28;20033;-58
2024/03/07 11:56:09;;;;;;;278.73;31.92;;;9.90;95.10;;;;;;5060839;28;20464;-58
2024/03/07 11:58:37;;;;;;;108.13;18.58;;;9.90;95.10;;;;;;5029105;28;20029;-58
2024/03/07 12:01:05;;;;;;;90.88;15.30;;;9.90;95.10;;;;;;5028311;28;20024;-58
2024/03/07 12:03:31;;;;;;;80.03;16.45;;;9.90;95.10;;;;;;5030418;28;20249;-58
2024/03/07 12:05:57;;;;;;;110.10;18.42;;;9.90;95.00;;;;;;5027959;28;20029;-58
2024/03/07 12:08:23;;;;;;;92.53;17.00;;;9.90;94.90;;;;;;5041243;28;20052;-58
2024/03/07 12:10:53;;;;;;;80.22;15.18;;;9.90;94.90;;;;;;5063689;28;20032;-58
2024/03/07 12:13:19;;;;;;;120.10;18.70;;;10.00;94.70;;;;;;5032429;28;20025;-58
2024/03/07 12:15:45;;;;;;;150.38;20.27;;;10.00;94.70;;;;;;5045746;28;20043;-58
2024/03/07 12:18:13;;;;;;;135.00;19.77;;;10.00;94.70;;;;;;5032365;28;20033;-57
2024/03/07 12:20:40;;;;;;;85.80;15.55;;;10.00;94.60;;;;;;5063914;28;20021;-57
2024/03/07 12:23:08;;;;;;;78.13;15.13;;;10.00;94.50;;;;;;5031501;28;20100;-58
2024/03/07 12:25:36;;;;;;;113.10;17.88;;;10.00;94.60;;;;;;4995352;28;20100;-58
2024/03/07 12:28:06;;;;;;;83.82;16.40;;;10.00;94.50;;;;;;5042711;28;20098;-57
2024/03/07 12:30:32;;;;;;;85.35;16.27;;;10.00;94.40;;;;;;5052576;28;20047;-58
2024/03/07 12:32:59;;;;;;;105.38;16.00;;;10.00;94.30;;;;;;5058839;28;20303;-58
2024/03/07 12:35:25;;;;;;;140.10;20.25;;;10.10;94.30;;;;;;5044505;28;20029;-58
2024/03/07 12:37:51;;;;;;;89.47;17.60;;;10.10;94.30;;;;;;5031651;28;20115;-58
2024/03/07 12:40:19;;;;;;;98.95;17.42;;;10.10;94.30;;;;;;5034905;28;20025;-57
2024/03/07 12:42:48;;;;;;;84.32;16.65;;;10.10;94.20;;;;;;5049166;28;20028;-58